createdAt,value
2023-05-08T00:01:09.699Z,1.98
2023-05-08T00:03:36.926Z,2.10
2023-05-08T00:06:07.526Z,2.25
2023-05-08T00:08:34.663Z,2.00
2023-05-08T00:11:01.727Z,2.10
2023-05-08T00:13:28.799Z,2.20
2023-05-08T00:15:55.927Z,2.20
2023-05-08T00:18:22.992Z,2.58
2023-05-08T00:20:50.239Z,2.25
2023-05-08T00:23:17.365Z,1.73
2023-05-08T00:25:44.443Z,2.00
2023-05-08T00:28:11.561Z,1.92
2023-05-08T00:30:38.696Z,2.30
2023-05-08T00:33:05.848Z,2.55
2023-05-08T00:35:33.024Z,2.08
2023-05-08T00:38:00.181Z,2.50
2023-05-08T00:40:27.360Z,2.45
2023-05-08T00:42:54.504Z,2.15
2023-05-08T00:45:21.577Z,2.10
2023-05-08T00:47:48.844Z,2.40
2023-05-08T00:50:16.281Z,2.10
2023-05-08T00:52:43.684Z,2.03
2023-05-08T00:55:10.792Z,2.30
2023-05-08T00:57:38.004Z,2.20
2023-05-08T01:00:05.545Z,2.20
2023-05-08T01:02:33.003Z,2.08
2023-05-08T01:05:00.751Z,1.50
2023-05-08T01:07:28.339Z,2.63
2023-05-08T01:09:55.484Z,2.22
2023-05-08T01:12:35.672Z,2.45
2023-05-08T01:15:06.970Z,2.17
2023-05-08T01:17:52.832Z,2.25
2023-05-08T01:20:30.148Z,2.00
2023-05-08T01:23:17.522Z,2.50
2023-05-08T01:25:47.424Z,2.20
2023-05-08T01:28:22.886Z,2.00
2023-05-08T01:30:55.831Z,2.13
2023-05-08T01:33:31.124Z,1.95
2023-05-08T01:36:01.453Z,2.10
2023-05-08T01:38:28.517Z,2.00
2023-05-08T01:41:02.460Z,2.22
2023-05-08T01:43:32.691Z,2.08
2023-05-08T01:46:03.993Z,1.60
2023-05-08T01:51:05.250Z,2.08
2023-05-08T01:53:43.439Z,2.00
2023-05-08T01:56:12.686Z,2.40
2023-05-08T01:58:40.722Z,2.00
2023-05-08T02:01:09.045Z,2.50
2023-05-08T02:03:37.951Z,2.47
2023-05-08T02:06:05.389Z,2.25
2023-05-08T02:08:34.108Z,2.30
2023-05-08T02:11:01.578Z,2.42
2023-05-08T02:13:30.553Z,2.10
2023-05-08T02:15:58.874Z,2.35
2023-05-08T02:18:26.808Z,2.30
2023-05-08T02:20:56.340Z,2.20
2023-05-08T02:23:26.605Z,2.20
2023-05-08T02:25:56.982Z,2.50
2023-05-08T02:28:24.914Z,2.60
2023-05-08T02:30:53.306Z,2.67
2023-05-08T02:33:21.086Z,2.00
2023-05-08T02:35:49.222Z,1.90
2023-05-08T02:38:16.890Z,2.70
2023-05-08T02:40:48.374Z,2.28
2023-05-08T02:43:15.595Z,2.30
2023-05-08T02:46:03.637Z,2.47
2023-05-08T02:48:43.258Z,2.00
2023-05-08T02:51:10.363Z,2.30
2023-05-08T02:53:41.274Z,1.90
2023-05-08T02:56:12.931Z,2.03
2023-05-08T02:58:45.174Z,2.08
2023-05-08T03:01:17.197Z,2.30
2023-05-08T03:03:46.238Z,2.00
2023-05-08T03:06:14.747Z,2.42
2023-05-08T03:08:42.874Z,2.30
2023-05-08T03:11:12.640Z,2.17
2023-05-08T03:13:41.560Z,2.05
2023-05-08T03:16:12.244Z,1.80
2023-05-08T03:18:43.608Z,2.30
2023-05-08T03:21:13.148Z,2.55
2023-05-08T03:23:41.299Z,1.80
2023-05-08T03:26:08.576Z,2.30
2023-05-08T03:28:36.421Z,2.67
2023-05-08T03:31:05.997Z,2.25
2023-05-08T03:33:33.448Z,2.15
2023-05-08T03:36:00.564Z,2.17
2023-05-08T03:38:27.633Z,2.25
2023-05-08T03:40:54.721Z,2.20
2023-05-08T03:43:22.383Z,2.35
2023-05-08T03:45:50.094Z,2.15
2023-05-08T03:48:17.607Z,2.30
2023-05-08T03:50:45.642Z,2.10
2023-05-08T03:53:12.738Z,2.67
2023-05-08T03:55:41.407Z,2.20
2023-05-08T03:58:27.508Z,2.28
2023-05-08T04:00:57.547Z,2.85
2023-05-08T04:03:30.678Z,2.70
2023-05-08T04:06:03.705Z,2.17
2023-05-08T04:08:32.337Z,2.20
2023-05-08T04:10:59.382Z,2.42
2023-05-08T04:13:28.317Z,2.33
2023-05-08T04:16:14.259Z,2.20
2023-05-08T04:18:44.961Z,2.47
2023-05-08T04:21:16.093Z,2.50
2023-05-08T04:23:44.925Z,2.67
2023-05-08T04:26:15.226Z,2.47
2023-05-08T04:28:43.839Z,2.40
2023-05-08T04:31:11.293Z,2.00
2023-05-08T04:33:39.060Z,2.40
2023-05-08T04:36:06.283Z,2.80
2023-05-08T04:38:37.745Z,2.03
2023-05-08T04:41:05.055Z,1.88
2023-05-08T04:43:32.305Z,2.17
2023-05-08T04:45:59.440Z,2.17
2023-05-08T04:48:26.546Z,2.47
2023-05-08T04:50:53.729Z,2.35
2023-05-08T04:53:20.790Z,2.72
2023-05-08T04:55:47.843Z,2.33
2023-05-08T04:58:14.948Z,2.35
2023-05-08T05:00:42.055Z,2.70
2023-05-08T05:03:09.192Z,2.78
2023-05-08T05:05:38.688Z,2.78
2023-05-08T05:08:06.042Z,2.75
2023-05-08T05:10:33.093Z,2.80
2023-05-08T05:13:00.378Z,3.05
2023-05-08T05:15:27.495Z,2.85
2023-05-08T05:17:54.597Z,2.67
2023-05-08T05:20:21.797Z,2.85
2023-05-08T05:22:49.002Z,2.58
2023-05-08T05:25:16.268Z,2.60
2023-05-08T05:27:43.402Z,2.35
2023-05-08T05:30:10.858Z,2.42
2023-05-08T05:32:38.063Z,2.67
2023-05-08T05:35:05.453Z,2.83
2023-05-08T05:37:32.536Z,2.88
2023-05-08T05:39:59.604Z,2.63
2023-05-08T05:42:26.768Z,2.50
2023-05-08T05:44:53.822Z,3.10
2023-05-08T05:47:21.014Z,3.17
2023-05-08T05:49:48.153Z,2.65
2023-05-08T05:52:15.581Z,2.60
2023-05-08T05:54:42.738Z,3.10
2023-05-08T05:57:09.910Z,2.72
2023-05-08T05:59:37.380Z,3.08
2023-05-08T06:02:04.697Z,2.75
2023-05-08T06:04:31.934Z,3.00
2023-05-08T06:06:59.091Z,2.75
2023-05-08T06:09:26.190Z,2.90
2023-05-08T06:11:53.287Z,2.70
2023-05-08T06:14:20.418Z,3.00
2023-05-08T06:16:47.906Z,2.63
2023-05-08T06:19:15.090Z,3.08
2023-05-08T06:21:42.161Z,3.20
2023-05-08T06:24:09.353Z,3.35
2023-05-08T06:26:36.494Z,2.90
2023-05-08T06:29:03.558Z,3.20
2023-05-08T06:31:30.829Z,3.55
2023-05-08T06:33:57.937Z,3.47
2023-05-08T06:36:24.998Z,3.08
2023-05-08T06:38:52.066Z,3.10
2023-05-08T06:41:19.164Z,3.42
2023-05-08T06:43:46.258Z,2.67
2023-05-08T06:46:13.373Z,2.90
2023-05-08T06:48:41.239Z,3.97
2023-05-08T06:51:08.297Z,3.38
2023-05-08T06:53:35.367Z,3.05
2023-05-08T06:56:02.548Z,3.42
2023-05-08T06:58:31.492Z,3.40
2023-05-08T07:01:01.827Z,3.63
2023-05-08T07:03:29.104Z,3.42
2023-05-08T07:05:56.582Z,3.15
2023-05-08T07:08:23.685Z,3.53
2023-05-08T07:10:50.841Z,3.47
2023-05-08T07:13:21.673Z,3.35
2023-05-08T07:15:48.902Z,3.33
2023-05-08T07:18:16.008Z,2.90
2023-05-08T07:20:43.068Z,2.97
2023-05-08T07:23:10.215Z,2.80
2023-05-08T07:25:37.340Z,3.05
2023-05-08T07:28:04.503Z,2.92
2023-05-08T07:30:31.813Z,2.88
2023-05-08T07:32:59.062Z,3.10
2023-05-08T07:35:26.168Z,3.22
2023-05-08T07:37:53.430Z,3.28
2023-05-08T07:40:20.605Z,3.45
2023-05-08T07:42:47.705Z,2.97
2023-05-08T07:45:15.067Z,3.10
2023-05-08T07:47:55.700Z,3.05
2023-05-08T07:50:23.221Z,3.42
2023-05-08T07:52:50.982Z,3.08
2023-05-08T07:55:18.812Z,3.13
2023-05-08T07:57:46.261Z,3.30
2023-05-08T08:00:14.671Z,3.47
2023-05-08T08:02:42.503Z,2.95
2023-05-08T08:05:10.003Z,3.03
2023-05-08T08:07:37.462Z,3.63
2023-05-08T08:10:04.932Z,3.00
2023-05-08T08:12:32.200Z,3.25
2023-05-08T08:14:59.315Z,3.28
2023-05-08T08:17:28.644Z,3.05
2023-05-08T08:19:55.942Z,3.17
2023-05-08T08:22:23.156Z,2.88
2023-05-08T08:24:51.908Z,2.80
2023-05-08T08:29:48.188Z,2.85
2023-05-08T08:32:15.340Z,2.67
2023-05-08T08:34:42.598Z,2.83
2023-05-08T08:37:09.683Z,2.63
2023-05-08T08:39:36.894Z,2.88
2023-05-08T08:42:04.355Z,2.70
2023-05-08T08:44:31.480Z,3.05
2023-05-08T08:46:59.533Z,3.08
2023-05-08T08:49:31.124Z,2.63
2023-05-08T08:52:07.528Z,2.97
2023-05-08T08:54:35.897Z,2.90
2023-05-08T08:57:07.935Z,4.30
2023-05-08T08:59:35.144Z,3.85
2023-05-08T09:02:07.230Z,3.08
2023-05-08T09:04:34.398Z,3.05
2023-05-08T09:07:02.787Z,3.55
2023-05-08T09:09:30.706Z,3.10
2023-05-08T09:11:57.768Z,3.00
2023-05-08T09:14:26.919Z,3.72
2023-05-08T09:16:56.954Z,3.00
2023-05-08T09:19:27.050Z,3.17
2023-05-08T09:21:55.948Z,3.47
2023-05-08T09:24:23.519Z,2.78
2023-05-08T09:26:50.723Z,3.05
2023-05-08T09:29:18.773Z,2.75
2023-05-08T09:31:46.925Z,2.75
2023-05-08T09:34:24.965Z,2.65
2023-05-08T09:36:52.175Z,2.70
2023-05-08T09:39:24.048Z,2.65
2023-05-08T09:42:04.754Z,3.00
2023-05-08T09:44:49.548Z,2.97
2023-05-08T09:47:17.573Z,2.95
2023-05-08T09:49:57.050Z,2.80
2023-05-08T09:52:24.831Z,2.85
2023-05-08T09:54:59.194Z,2.42
2023-05-08T09:57:27.190Z,2.80
2023-05-08T10:00:13.483Z,2.53
2023-05-08T10:02:42.017Z,2.60
2023-05-08T10:05:32.791Z,2.35
2023-05-08T10:08:06.128Z,2.92
2023-05-08T10:10:33.252Z,2.50
2023-05-08T10:13:00.401Z,2.53
2023-05-08T10:15:31.225Z,2.75
2023-05-08T10:18:05.034Z,2.55
2023-05-08T10:20:32.717Z,2.58
2023-05-08T10:23:00.067Z,2.60
2023-05-08T10:25:29.155Z,2.50
2023-05-08T10:27:59.074Z,2.13
2023-05-08T10:30:27.131Z,2.47
2023-05-08T10:32:55.528Z,2.28
2023-05-08T10:35:23.362Z,2.10
2023-05-08T10:37:50.752Z,2.50
2023-05-08T10:40:20.937Z,2.38
2023-05-08T10:42:48.494Z,2.13
2023-05-08T10:45:15.768Z,2.10
2023-05-08T10:47:52.589Z,2.90
2023-05-08T10:50:37.941Z,2.22
2023-05-08T10:53:12.495Z,2.67
2023-05-08T10:55:41.287Z,2.90
2023-05-08T10:58:11.441Z,3.08
2023-05-08T11:00:53.998Z,2.92
2023-05-08T11:03:31.215Z,2.83
2023-05-08T11:06:00.233Z,2.40
2023-05-08T11:08:28.515Z,3.00
2023-05-08T11:11:07.604Z,2.70
2023-05-08T11:13:35.904Z,2.75
2023-05-08T11:16:03.406Z,3.35
2023-05-08T11:18:45.639Z,2.40
2023-05-08T11:21:16.572Z,2.80
2023-05-08T11:23:43.674Z,2.40
2023-05-08T11:26:11.371Z,2.60
2023-05-08T11:28:39.688Z,2.60
2023-05-08T11:31:07.924Z,3.08
2023-05-08T11:33:39.133Z,2.92
2023-05-08T11:38:38.182Z,2.72
2023-05-08T11:41:06.547Z,2.50
2023-05-08T11:43:33.800Z,2.80
2023-05-08T11:46:03.113Z,2.67
2023-05-08T11:48:30.551Z,2.63
2023-05-08T11:50:57.646Z,2.80
2023-05-08T11:53:24.806Z,3.08
2023-05-08T11:55:54.939Z,3.28
2023-05-08T11:58:22.424Z,3.60
2023-05-08T12:00:49.989Z,2.72
2023-05-08T12:03:18.800Z,2.83
2023-05-08T12:05:46.490Z,3.00
2023-05-08T12:08:14.484Z,2.60
2023-05-08T12:10:41.637Z,2.15
2023-05-08T12:13:29.303Z,2.25
2023-05-08T12:16:00.612Z,3.15
2023-05-08T12:18:29.274Z,2.83
2023-05-08T12:21:01.240Z,2.65
2023-05-08T12:23:29.487Z,2.67
2023-05-08T12:25:59.342Z,2.85
2023-05-08T12:28:26.602Z,2.22
2023-05-08T12:30:54.712Z,2.67
2023-05-08T12:33:21.904Z,2.50
2023-05-08T12:35:49.152Z,2.85
2023-05-08T12:38:16.217Z,2.58
2023-05-08T12:40:44.458Z,2.50
2023-05-08T12:43:11.634Z,2.53
2023-05-08T12:45:39.890Z,2.60
2023-05-08T12:48:08.020Z,2.42
2023-05-08T12:50:39.283Z,2.70
2023-05-08T12:53:07.842Z,2.15
2023-05-08T12:55:36.113Z,2.10
2023-05-08T12:58:06.433Z,2.30
2023-05-08T13:00:37.145Z,2.60
2023-05-08T13:03:04.615Z,2.60
2023-05-08T13:05:31.962Z,2.17
2023-05-08T13:08:06.175Z,2.35
2023-05-08T13:10:48.788Z,2.42
2023-05-08T13:13:17.075Z,2.58
2023-05-08T13:15:44.246Z,2.38
2023-05-08T13:18:11.491Z,2.10
2023-05-08T13:20:39.079Z,2.35
2023-05-08T13:23:06.459Z,2.20
2023-05-08T13:25:33.996Z,2.30
2023-05-08T13:28:01.225Z,2.70
2023-05-08T13:30:28.612Z,2.03
2023-05-08T13:32:55.883Z,1.95
2023-05-08T13:35:23.256Z,2.22
2023-05-08T13:37:50.857Z,2.10
2023-05-08T13:40:18.416Z,2.05
2023-05-08T13:42:45.497Z,2.10
2023-05-08T13:45:14.772Z,2.15
2023-05-08T13:47:45.467Z,2.22
2023-05-08T13:50:13.460Z,2.53
2023-05-08T13:52:41.058Z,2.28
2023-05-08T13:55:08.966Z,1.95
2023-05-08T13:57:36.405Z,2.13
2023-05-08T14:00:04.839Z,2.63
2023-05-08T14:02:32.086Z,2.35
2023-05-08T14:04:59.253Z,2.45
2023-05-08T14:07:26.437Z,2.30
2023-05-08T14:09:54.240Z,2.50
2023-05-08T14:12:21.285Z,2.47
2023-05-08T14:14:48.386Z,2.45
2023-05-08T14:17:15.579Z,2.50
2023-05-08T14:19:42.708Z,2.55
2023-05-08T14:22:09.858Z,2.15
2023-05-08T14:24:36.997Z,2.47
2023-05-08T14:27:06.080Z,2.05
2023-05-08T14:29:34.063Z,2.25
2023-05-08T14:32:01.554Z,2.90
2023-05-08T14:34:28.800Z,1.90
2023-05-08T14:36:55.877Z,1.90
2023-05-08T14:39:23.042Z,2.63
2023-05-08T14:42:14.414Z,1.88
2023-05-08T14:44:37.529Z,1.83
2023-05-08T14:47:04.618Z,2.10
2023-05-08T14:49:37.970Z,1.95
2023-05-08T14:52:06.260Z,1.92
2023-05-08T14:54:33.805Z,2.25
2023-05-08T14:57:01.115Z,2.22
2023-05-08T14:59:28.340Z,2.05
2023-05-08T15:01:55.518Z,2.03
2023-05-08T15:04:22.732Z,2.25
2023-05-08T15:06:49.925Z,1.92
2023-05-08T15:09:17.145Z,2.38
2023-05-08T15:11:44.383Z,2.10
2023-05-08T15:14:11.648Z,2.20
2023-05-08T15:16:38.796Z,2.45
2023-05-08T15:19:05.994Z,2.33
2023-05-08T15:21:33.129Z,2.03
2023-05-08T15:24:00.254Z,2.30
2023-05-08T15:26:27.336Z,2.30
2023-05-08T15:28:54.491Z,2.10
2023-05-08T15:31:21.657Z,2.25
2023-05-08T15:33:48.837Z,2.25
2023-05-08T15:36:16.171Z,2.38
2023-05-08T15:38:43.579Z,1.80
2023-05-08T15:41:14.801Z,2.20
2023-05-08T15:43:42.996Z,2.63
2023-05-08T15:46:10.807Z,1.90
2023-05-08T15:48:37.924Z,2.25
2023-05-08T15:51:05.037Z,2.20
2023-05-08T15:53:33.779Z,2.17
2023-05-08T15:56:00.931Z,2.55
2023-05-08T15:58:28.078Z,2.08
2023-05-08T16:00:56.782Z,3.08
2023-05-08T16:03:24.278Z,2.65
2023-05-08T16:05:51.566Z,2.47
2023-05-08T16:08:19.368Z,2.60
2023-05-08T16:10:46.550Z,2.30
2023-05-08T16:13:13.682Z,2.60
2023-05-08T16:15:41.010Z,1.98
2023-05-08T16:18:08.463Z,2.58
2023-05-08T16:20:36.378Z,2.30
2023-05-08T16:23:03.735Z,2.65
2023-05-08T16:25:30.857Z,2.38
2023-05-08T16:27:58.703Z,2.65
2023-05-08T16:30:25.846Z,2.60
2023-05-08T16:32:53.018Z,2.38
2023-05-08T16:35:20.388Z,2.70
2023-05-08T16:37:47.486Z,2.30
2023-05-08T16:40:14.880Z,2.42
2023-05-08T16:42:42.001Z,2.60
2023-05-08T16:45:09.344Z,2.60
2023-05-08T16:47:36.590Z,2.33
2023-05-08T16:50:04.355Z,2.30
2023-05-08T16:52:32.805Z,2.10
2023-05-08T16:55:00.353Z,2.20
2023-05-08T16:57:28.006Z,2.22
2023-05-08T16:59:55.134Z,2.67
2023-05-08T17:02:22.620Z,2.50
2023-05-08T17:04:49.976Z,2.30
2023-05-08T17:07:17.967Z,2.42
2023-05-08T17:09:45.684Z,2.47
2023-05-08T17:12:12.861Z,2.30
2023-05-08T17:14:40.587Z,2.20
2023-05-08T17:17:07.968Z,2.17
2023-05-08T17:19:35.459Z,2.28
2023-05-08T17:22:02.903Z,2.17
2023-05-08T17:24:30.505Z,2.85
2023-05-08T17:26:57.780Z,2.08
2023-05-08T17:29:24.915Z,2.40
2023-05-08T17:31:52.024Z,2.25
2023-05-08T17:34:19.318Z,2.20
2023-05-08T17:36:46.533Z,2.83
2023-05-08T17:39:13.616Z,2.45
2023-05-08T17:41:41.012Z,1.80
2023-05-08T17:44:08.172Z,2.10
2023-05-08T17:46:35.250Z,2.13
2023-05-08T17:49:02.420Z,2.20
2023-05-08T17:51:29.511Z,2.30
2023-05-08T17:53:56.626Z,2.30
2023-05-08T17:56:24.286Z,2.20
2023-05-08T17:58:52.460Z,2.22
2023-05-08T18:01:20.106Z,2.10
2023-05-08T18:03:50.424Z,2.33
2023-05-08T18:06:18.041Z,2.80
2023-05-08T18:08:45.629Z,2.70
2023-05-08T18:11:16.663Z,2.38
2023-05-08T18:13:43.778Z,2.00
2023-05-08T18:16:10.934Z,2.13
2023-05-08T18:18:38.181Z,2.17
2023-05-08T18:21:05.271Z,2.50
2023-05-08T18:23:32.429Z,2.35
2023-05-08T18:25:59.543Z,2.13
2023-05-08T18:28:26.659Z,2.70
2023-05-08T18:30:53.722Z,2.35
2023-05-08T18:33:20.852Z,2.53
2023-05-08T18:35:47.998Z,2.50
2023-05-08T18:38:17.565Z,2.55
2023-05-08T18:40:45.282Z,2.90
2023-05-08T18:43:12.349Z,2.88
2023-05-08T18:45:40.265Z,2.72
2023-05-08T18:48:08.112Z,2.53
2023-05-08T18:50:35.264Z,2.80
2023-05-08T18:53:02.348Z,2.53
2023-05-08T18:55:29.532Z,2.85
2023-05-08T18:57:56.721Z,2.75
2023-05-08T19:00:23.820Z,2.92
2023-05-08T19:02:51.031Z,2.33
2023-05-08T19:05:18.193Z,3.05
2023-05-08T19:07:45.541Z,2.63
2023-05-08T19:10:13.407Z,2.47
2023-05-08T19:12:40.727Z,2.75
2023-05-08T19:15:13.772Z,3.20
2023-05-08T19:17:41.307Z,2.90
2023-05-08T19:20:08.773Z,3.50
2023-05-08T19:22:36.182Z,2.85
2023-05-08T19:25:03.899Z,3.22
2023-05-08T19:27:32.054Z,4.05
2023-05-08T19:29:59.362Z,3.30
2023-05-08T19:32:26.524Z,3.28
2023-05-08T19:34:55.375Z,3.50
2023-05-08T19:37:22.638Z,3.33
2023-05-08T19:39:49.740Z,3.67
2023-05-08T19:42:16.836Z,3.42
2023-05-08T19:44:43.938Z,3.38
2023-05-08T19:47:11.098Z,3.50
2023-05-08T19:49:38.350Z,3.40
2023-05-08T19:52:05.795Z,3.35
2023-05-08T19:54:32.868Z,3.13
2023-05-08T19:56:59.981Z,3.40
2023-05-08T19:59:27.661Z,4.00
2023-05-08T20:01:54.861Z,3.97
2023-05-08T20:04:22.019Z,3.60
2023-05-08T20:06:49.132Z,3.95
2023-05-08T20:09:16.174Z,3.30
2023-05-08T20:11:43.266Z,3.80
2023-05-08T20:14:10.409Z,3.70
2023-05-08T20:16:37.616Z,3.72
2023-05-08T20:19:04.891Z,4.30
2023-05-08T20:21:33.863Z,3.63
2023-05-08T20:24:01.646Z,3.92
2023-05-08T20:26:29.440Z,3.88
2023-05-08T20:28:57.127Z,3.90
2023-05-08T20:31:25.734Z,3.45
2023-05-08T20:33:52.932Z,3.72
2023-05-08T20:36:20.467Z,3.42
2023-05-08T20:38:47.693Z,3.88
2023-05-08T20:41:15.147Z,3.50
2023-05-08T20:43:42.260Z,3.50
2023-05-08T20:46:10.035Z,3.33
2023-05-08T20:48:38.379Z,3.63
2023-05-08T20:51:05.611Z,3.50
2023-05-08T20:53:32.789Z,3.55
2023-05-08T20:56:00.585Z,3.90
2023-05-08T20:58:27.821Z,3.42
2023-05-08T21:00:54.988Z,3.50
2023-05-08T21:03:22.440Z,4.18
2023-05-08T21:05:49.843Z,3.50
2023-05-08T21:08:16.897Z,3.58
2023-05-08T21:10:43.966Z,3.38
2023-05-08T21:13:11.159Z,3.53
2023-05-08T21:15:38.229Z,3.85
2023-05-08T21:18:05.378Z,3.30
2023-05-08T21:20:36.286Z,3.28
2023-05-08T21:23:03.508Z,3.55
2023-05-08T21:25:31.010Z,3.45
2023-05-08T21:27:58.210Z,3.53
2023-05-08T21:30:25.307Z,3.13
2023-05-08T21:32:52.429Z,3.65
2023-05-08T21:35:19.657Z,3.92
2023-05-08T21:37:46.732Z,3.63
2023-05-08T21:40:13.823Z,3.60
2023-05-08T21:42:41.193Z,3.60
2023-05-08T21:45:08.453Z,3.03
2023-05-08T21:47:35.568Z,3.63
2023-05-08T21:50:03.060Z,3.28
2023-05-08T21:52:30.156Z,3.03
2023-05-08T21:54:57.225Z,2.83
2023-05-08T21:57:24.428Z,3.40
2023-05-08T21:59:51.592Z,3.20
2023-05-08T22:02:19.955Z,3.38
2023-05-08T22:04:47.140Z,2.80
2023-05-08T22:07:14.227Z,3.65
2023-05-08T22:09:41.475Z,2.90
2023-05-08T22:12:08.843Z,3.20
2023-05-08T22:14:36.088Z,3.00
2023-05-08T22:17:03.190Z,3.60
2023-05-08T22:19:30.362Z,3.33
2023-05-08T22:21:57.561Z,2.90
2023-05-08T22:24:25.203Z,2.85
2023-05-08T22:26:52.266Z,2.88
2023-05-08T22:29:19.338Z,2.78
2023-05-08T22:31:47.674Z,3.20
2023-05-08T22:34:15.094Z,3.72
2023-05-08T22:36:42.194Z,3.00
2023-05-08T22:39:13.004Z,3.25
2023-05-08T22:41:40.310Z,3.05
2023-05-08T22:44:08.494Z,3.25
2023-05-08T22:46:35.968Z,3.22
2023-05-08T22:49:03.307Z,3.47
2023-05-08T22:51:32.529Z,3.60
2023-05-08T22:53:59.622Z,3.50
2023-05-08T22:56:26.786Z,3.50
2023-05-08T22:58:56.895Z,3.55
2023-05-08T23:01:24.115Z,3.30
2023-05-08T23:03:53.608Z,3.85
2023-05-08T23:06:20.728Z,3.45
2023-05-08T23:08:47.853Z,3.30
2023-05-08T23:11:15.157Z,3.25
2023-05-08T23:13:42.277Z,3.20
2023-05-08T23:16:09.423Z,3.67
2023-05-08T23:18:36.767Z,3.30
2023-05-08T23:21:07.294Z,3.05
2023-05-08T23:23:34.718Z,2.90
2023-05-08T23:26:04.888Z,3.03
2023-05-08T23:28:33.302Z,3.70
2023-05-08T23:31:00.544Z,3.30
2023-05-08T23:33:27.738Z,3.30
2023-05-08T23:35:58.067Z,2.75
2023-05-08T23:38:25.273Z,3.10
2023-05-08T23:40:52.555Z,3.15
2023-05-08T23:43:19.693Z,3.10
2023-05-08T23:45:46.852Z,3.17
2023-05-08T23:48:14.007Z,2.95
2023-05-08T23:50:41.749Z,2.88
2023-05-08T23:53:09.133Z,2.90
2023-05-08T23:55:37.913Z,2.92
2023-05-08T23:58:05.212Z,3.25
